sensor_id;sensor_type;location;lat;lon;timestamp;temperature;humidity
25914;DHT22;13718;50.922;5.346;2023-03-30T00:00:39;16.40;99.90
25914;DHT22;13718;50.922;5.346;2023-03-30T00:03:07;16.50;99.90
25914;DHT22;13718;50.922;5.346;2023-03-30T00:05:33;16.50;99.90
25914;DHT22;13718;50.922;5.346;2023-03-30T00:07:59;16.40;99.90
25914;DHT22;13718;50.922;5.346;2023-03-30T00:10:24;16.40;99.90
25914;DHT22;13718;50.922;5.346;2023-03-30T00:12:51;16.50;99.90
25914;DHT22;13718;50.922;5.346;2023-03-30T00:15:18;16.50;99.90
25914;DHT22;13718;50.922;5.346;2023-03-30T00:17:44;16.40;99.90
25914;DHT22;13718;50.922;5.346;2023-03-30T00:20:10;16.50;99.90
25914;DHT22;13718;50.922;5.346;2023-03-30T00:22:44;16.50;99.90
25914;DHT22;13718;50.922;5.346;2023-03-30T00:25:13;16.60;99.90
25914;DHT22;13718;50.922;5.346;2023-03-30T00:27:39;16.50;99.90
25914;DHT22;13718;50.922;5.346;2023-03-30T00:30:09;16.60;99.90
25914;DHT22;13718;50.922;5.346;2023-03-30T00:32:35;16.50;99.90
25914;DHT22;13718;50.922;5.346;2023-03-30T00:35:01;16.50;99.90
25914;DHT22;13718;50.922;5.346;2023-03-30T00:37:27;16.50;99.90
25914;DHT22;13718;50.922;5.346;2023-03-30T00:39:52;16.40;99.90
25914;DHT22;13718;50.922;5.346;2023-03-30T00:42:18;16.50;99.90
25914;DHT22;13718;50.922;5.346;2023-03-30T00:45:04;16.50;99.90
25914;DHT22;13718;50.922;5.346;2023-03-30T00:47:31;16.40;99.90
25914;DHT22;13718;50.922;5.346;2023-03-30T00:49:56;16.50;99.90
25914;DHT22;13718;50.922;5.346;2023-03-30T00:52:22;16.50;99.90
25914;DHT22;13718;50.922;5.346;2023-03-30T00:54:52;16.40;99.90
25914;DHT22;13718;50.922;5.346;2023-03-30T00:57:19;16.30;99.90
25914;DHT22;13718;50.922;5.346;2023-03-30T00:59:46;16.40;99.90
25914;DHT22;13718;50.922;5.346;2023-03-30T01:02:12;16.50;99.90
25914;DHT22;13718;50.922;5.346;2023-03-30T01:04:38;16.40;99.90
25914;DHT22;13718;50.922;5.346;2023-03-30T01:07:03;16.40;99.90
25914;DHT22;13718;50.922;5.346;2023-03-30T01:09:29;16.40;99.90
25914;DHT22;13718;50.922;5.346;2023-03-30T01:11:55;16.40;99.90
25914;DHT22;13718;50.922;5.346;2023-03-30T01:14:20;16.50;99.90
25914;DHT22;13718;50.922;5.346;2023-03-30T01:16:55;16.40;99.90
25914;DHT22;13718;50.922;5.346;2023-03-30T01:39:51;16.40;99.90
25914;DHT22;13718;50.922;5.346;2023-03-30T01:49:51;16.40;99.90
25914;DHT22;13718;50.922;5.346;2023-03-30T01:54:55;16.30;99.90
25914;DHT22;13718;50.922;5.346;2023-03-30T01:57:26;16.30;99.90
25914;DHT22;13718;50.922;5.346;2023-03-30T01:59:53;16.30;99.90
25914;DHT22;13718;50.922;5.346;2023-03-30T02:02:20;16.30;99.90
25914;DHT22;13718;50.922;5.346;2023-03-30T02:04:46;16.20;99.90
25914;DHT22;13718;50.922;5.346;2023-03-30T02:07:13;16.40;99.90
25914;DHT22;13718;50.922;5.346;2023-03-30T02:09:40;16.40;99.90
25914;DHT22;13718;50.922;5.346;2023-03-30T02:12:08;16.40;99.90
25914;DHT22;13718;50.922;5.346;2023-03-30T02:14:34;16.40;99.90
25914;DHT22;13718;50.922;5.346;2023-03-30T02:17:04;16.40;99.90
25914;DHT22;13718;50.922;5.346;2023-03-30T02:19:31;16.40;99.90
25914;DHT22;13718;50.922;5.346;2023-03-30T02:22:02;16.40;99.90
25914;DHT22;13718;50.922;5.346;2023-03-30T02:24:28;16.30;99.90
25914;DHT22;13718;50.922;5.346;2023-03-30T02:26:55;16.00;99.90
25914;DHT22;13718;50.922;5.346;2023-03-30T02:29:22;15.70;99.90
25914;DHT22;13718;50.922;5.346;2023-03-30T02:31:48;15.70;99.90
25914;DHT22;13718;50.922;5.346;2023-03-30T02:44:42;15.30;99.90
25914;DHT22;13718;50.922;5.346;2023-03-30T02:55:18;15.20;99.90
25914;DHT22;13718;50.922;5.346;2023-03-30T03:02:50;15.50;99.90
25914;DHT22;13718;50.922;5.346;2023-03-30T03:05:16;15.50;99.90
25914;DHT22;13718;50.922;5.346;2023-03-30T03:07:42;15.60;99.90
25914;DHT22;13718;50.922;5.346;2023-03-30T03:10:09;15.50;99.90
25914;DHT22;13718;50.922;5.346;2023-03-30T03:12:34;15.50;99.90
25914;DHT22;13718;50.922;5.346;2023-03-30T03:15:01;15.40;99.90
25914;DHT22;13718;50.922;5.346;2023-03-30T03:17:27;15.40;99.90
25914;DHT22;13718;50.922;5.346;2023-03-30T03:19:59;15.60;99.90
25914;DHT22;13718;50.922;5.346;2023-03-30T03:22:25;15.70;99.90
25914;DHT22;13718;50.922;5.346;2023-03-30T03:24:51;15.60;99.90
25914;DHT22;13718;50.922;5.346;2023-03-30T03:27:16;15.50;99.90
25914;DHT22;13718;50.922;5.346;2023-03-30T03:29:42;15.50;99.90
25914;DHT22;13718;50.922;5.346;2023-03-30T03:32:07;15.70;99.90
25914;DHT22;13718;50.922;5.346;2023-03-30T03:34:32;15.70;99.90
25914;DHT22;13718;50.922;5.346;2023-03-30T03:36:58;16.00;99.90
25914;DHT22;13718;50.922;5.346;2023-03-30T03:39:23;16.00;99.90
25914;DHT22;13718;50.922;5.346;2023-03-30T03:41:50;15.90;99.90
25914;DHT22;13718;50.922;5.346;2023-03-30T03:44:15;15.90;99.90
25914;DHT22;13718;50.922;5.346;2023-03-30T03:46:41;16.10;99.90
25914;DHT22;13718;50.922;5.346;2023-03-30T03:49:06;15.80;99.90
25914;DHT22;13718;50.922;5.346;2023-03-30T03:51:32;15.80;99.90
25914;DHT22;13718;50.922;5.346;2023-03-30T03:53:58;15.70;99.90
25914;DHT22;13718;50.922;5.346;2023-03-30T03:56:24;15.60;99.90
25914;DHT22;13718;50.922;5.346;2023-03-30T03:58:51;15.70;99.90
25914;DHT22;13718;50.922;5.346;2023-03-30T04:01:16;15.70;99.90
25914;DHT22;13718;50.922;5.346;2023-03-30T04:03:42;15.70;99.90
25914;DHT22;13718;50.922;5.346;2023-03-30T04:06:07;15.70;99.90
25914;DHT22;13718;50.922;5.346;2023-03-30T04:08:33;15.70;99.90
25914;DHT22;13718;50.922;5.346;2023-03-30T04:11:06;15.50;99.90
25914;DHT22;13718;50.922;5.346;2023-03-30T04:13:32;15.60;99.90
25914;DHT22;13718;50.922;5.346;2023-03-30T04:15:58;15.50;99.90
25914;DHT22;13718;50.922;5.346;2023-03-30T04:18:23;15.50;99.90
25914;DHT22;13718;50.922;5.346;2023-03-30T04:20:49;15.50;99.90
25914;DHT22;13718;50.922;5.346;2023-03-30T04:23:14;15.60;99.90
25914;DHT22;13718;50.922;5.346;2023-03-30T04:25:46;15.60;99.90
25914;DHT22;13718;50.922;5.346;2023-03-30T04:28:11;15.60;99.90
25914;DHT22;13718;50.922;5.346;2023-03-30T04:30:37;15.70;99.90
25914;DHT22;13718;50.922;5.346;2023-03-30T04:33:03;15.60;99.90
25914;DHT22;13718;50.922;5.346;2023-03-30T04:35:29;15.80;99.90
25914;DHT22;13718;50.922;5.346;2023-03-30T04:37:55;15.70;99.90
25914;DHT22;13718;50.922;5.346;2023-03-30T04:40:22;15.40;99.90
25914;DHT22;13718;50.922;5.346;2023-03-30T04:42:48;15.30;99.90
25914;DHT22;13718;50.922;5.346;2023-03-30T04:45:14;15.20;99.90
25914;DHT22;13718;50.922;5.346;2023-03-30T04:47:41;15.30;99.90
25914;DHT22;13718;50.922;5.346;2023-03-30T04:50:07;15.50;99.90
25914;DHT22;13718;50.922;5.346;2023-03-30T04:52:33;15.60;99.90
25914;DHT22;13718;50.922;5.346;2023-03-30T04:54:58;15.70;99.90
25914;DHT22;13718;50.922;5.346;2023-03-30T04:57:24;15.70;99.90
25914;DHT22;13718;50.922;5.346;2023-03-30T04:59:50;15.70;99.90
25914;DHT22;13718;50.922;5.346;2023-03-30T05:02:16;15.80;99.90
25914;DHT22;13718;50.922;5.346;2023-03-30T05:04:41;15.80;99.90
25914;DHT22;13718;50.922;5.346;2023-03-30T05:07:07;15.70;99.90
25914;DHT22;13718;50.922;5.346;2023-03-30T05:09:33;15.70;99.90
25914;DHT22;13718;50.922;5.346;2023-03-30T05:12:01;15.70;99.90
25914;DHT22;13718;50.922;5.346;2023-03-30T05:14:28;15.70;99.90
25914;DHT22;13718;50.922;5.346;2023-03-30T05:16:54;15.70;99.90
25914;DHT22;13718;50.922;5.346;2023-03-30T05:19:20;15.70;99.90
25914;DHT22;13718;50.922;5.346;2023-03-30T05:21:46;15.80;99.90
25914;DHT22;13718;50.922;5.346;2023-03-30T05:24:11;15.60;99.90
25914;DHT22;13718;50.922;5.346;2023-03-30T05:26:37;15.70;99.90
25914;DHT22;13718;50.922;5.346;2023-03-30T05:29:02;15.70;99.90
25914;DHT22;13718;50.922;5.346;2023-03-30T05:31:28;15.80;99.90
25914;DHT22;13718;50.922;5.346;2023-03-30T05:33:54;15.90;99.90
25914;DHT22;13718;50.922;5.346;2023-03-30T05:36:19;15.80;99.90
25914;DHT22;13718;50.922;5.346;2023-03-30T05:38:45;15.70;99.90
25914;DHT22;13718;50.922;5.346;2023-03-30T05:41:11;15.70;99.90
25914;DHT22;13718;50.922;5.346;2023-03-30T05:43:36;15.60;99.90
25914;DHT22;13718;50.922;5.346;2023-03-30T05:46:02;15.80;99.90
25914;DHT22;13718;50.922;5.346;2023-03-30T05:48:28;15.90;99.90
25914;DHT22;13718;50.922;5.346;2023-03-30T05:50:54;15.90;99.90
25914;DHT22;13718;50.922;5.346;2023-03-30T05:53:19;15.90;99.90
25914;DHT22;13718;50.922;5.346;2023-03-30T05:55:46;15.80;99.90
25914;DHT22;13718;50.922;5.346;2023-03-30T05:58:12;15.70;99.90
25914;DHT22;13718;50.922;5.346;2023-03-30T06:00:38;15.60;99.90
25914;DHT22;13718;50.922;5.346;2023-03-30T06:03:09;15.70;99.90
25914;DHT22;13718;50.922;5.346;2023-03-30T06:05:35;15.60;99.90
25914;DHT22;13718;50.922;5.346;2023-03-30T06:08:01;15.50;99.90
25914;DHT22;13718;50.922;5.346;2023-03-30T06:10:26;15.40;99.90
25914;DHT22;13718;50.922;5.346;2023-03-30T06:12:52;15.40;99.90
25914;DHT22;13718;50.922;5.346;2023-03-30T06:15:17;15.40;99.90
25914;DHT22;13718;50.922;5.346;2023-03-30T06:17:43;15.40;99.90
25914;DHT22;13718;50.922;5.346;2023-03-30T06:20:09;15.10;99.90
25914;DHT22;13718;50.922;5.346;2023-03-30T06:22:38;14.90;99.90
25914;DHT22;13718;50.922;5.346;2023-03-30T06:25:06;14.80;99.90
25914;DHT22;13718;50.922;5.346;2023-03-30T06:27:31;14.70;99.90
25914;DHT22;13718;50.922;5.346;2023-03-30T06:29:57;14.60;99.90
25914;DHT22;13718;50.922;5.346;2023-03-30T06:32:23;14.50;99.90
25914;DHT22;13718;50.922;5.346;2023-03-30T06:34:48;14.40;99.90
25914;DHT22;13718;50.922;5.346;2023-03-30T06:37:14;14.20;99.90
25914;DHT22;13718;50.922;5.346;2023-03-30T06:39:39;14.00;99.90
25914;DHT22;13718;50.922;5.346;2023-03-30T06:42:05;13.90;99.90
25914;DHT22;13718;50.922;5.346;2023-03-30T06:44:30;13.90;99.90
25914;DHT22;13718;50.922;5.346;2023-03-30T06:46:56;13.80;99.90
25914;DHT22;13718;50.922;5.346;2023-03-30T06:49:22;13.80;99.90
25914;DHT22;13718;50.922;5.346;2023-03-30T06:51:47;13.80;99.90
25914;DHT22;13718;50.922;5.346;2023-03-30T06:54:13;14.00;99.90
25914;DHT22;13718;50.922;5.346;2023-03-30T06:56:38;14.10;99.90
25914;DHT22;13718;50.922;5.346;2023-03-30T06:59:04;14.00;99.90
25914;DHT22;13718;50.922;5.346;2023-03-30T07:01:30;14.10;99.90
25914;DHT22;13718;50.922;5.346;2023-03-30T07:03:55;14.30;99.90
25914;DHT22;13718;50.922;5.346;2023-03-30T07:06:21;14.50;99.90
25914;DHT22;13718;50.922;5.346;2023-03-30T07:08:47;14.80;99.90
25914;DHT22;13718;50.922;5.346;2023-03-30T07:11:13;15.00;99.90
25914;DHT22;13718;50.922;5.346;2023-03-30T07:13:38;15.20;99.90
25914;DHT22;13718;50.922;5.346;2023-03-30T07:16:04;15.40;99.90
25914;DHT22;13718;50.922;5.346;2023-03-30T07:18:30;15.30;99.90
25914;DHT22;13718;50.922;5.346;2023-03-30T07:20:56;15.50;99.90
25914;DHT22;13718;50.922;5.346;2023-03-30T07:23:22;15.60;99.90
25914;DHT22;13718;50.922;5.346;2023-03-30T07:25:47;16.00;99.90
25914;DHT22;13718;50.922;5.346;2023-03-30T07:28:13;16.10;99.90
25914;DHT22;13718;50.922;5.346;2023-03-30T07:30:38;16.20;99.90
25914;DHT22;13718;50.922;5.346;2023-03-30T07:33:04;16.50;99.90
25914;DHT22;13718;50.922;5.346;2023-03-30T07:35:29;17.10;99.90
25914;DHT22;13718;50.922;5.346;2023-03-30T07:37:55;17.00;99.90
25914;DHT22;13718;50.922;5.346;2023-03-30T07:40:20;16.90;99.90
25914;DHT22;13718;50.922;5.346;2023-03-30T07:42:46;16.40;99.90
25914;DHT22;13718;50.922;5.346;2023-03-30T07:45:12;15.90;99.90
25914;DHT22;13718;50.922;5.346;2023-03-30T07:47:38;15.70;99.90
25914;DHT22;13718;50.922;5.346;2023-03-30T07:50:03;15.50;99.90
25914;DHT22;13718;50.922;5.346;2023-03-30T07:52:30;15.30;99.90
25914;DHT22;13718;50.922;5.346;2023-03-30T07:54:56;15.10;99.90
25914;DHT22;13718;50.922;5.346;2023-03-30T07:57:22;14.90;99.90
25914;DHT22;13718;50.922;5.346;2023-03-30T07:59:47;14.60;99.90
25914;DHT22;13718;50.922;5.346;2023-03-30T08:02:13;14.30;99.90
25914;DHT22;13718;50.922;5.346;2023-03-30T08:04:39;14.00;99.90
25914;DHT22;13718;50.922;5.346;2023-03-30T08:07:06;14.00;99.90
25914;DHT22;13718;50.922;5.346;2023-03-30T08:09:31;14.00;99.90
25914;DHT22;13718;50.922;5.346;2023-03-30T08:11:57;14.00;99.90
25914;DHT22;13718;50.922;5.346;2023-03-30T08:14:23;14.00;99.90
25914;DHT22;13718;50.922;5.346;2023-03-30T08:16:52;14.10;99.90
25914;DHT22;13718;50.922;5.346;2023-03-30T08:19:18;14.20;99.90
25914;DHT22;13718;50.922;5.346;2023-03-30T08:21:43;14.30;99.90
25914;DHT22;13718;50.922;5.346;2023-03-30T08:24:09;14.50;99.90
25914;DHT22;13718;50.922;5.346;2023-03-30T08:26:34;14.60;99.90
25914;DHT22;13718;50.922;5.346;2023-03-30T08:29:00;14.50;99.90
25914;DHT22;13718;50.922;5.346;2023-03-30T08:31:26;14.50;99.90
25914;DHT22;13718;50.922;5.346;2023-03-30T08:33:51;14.50;99.90
25914;DHT22;13718;50.922;5.346;2023-03-30T08:36:17;14.60;99.90
25914;DHT22;13718;50.922;5.346;2023-03-30T08:38:44;14.50;99.90
25914;DHT22;13718;50.922;5.346;2023-03-30T08:46:20;14.60;99.90
25914;DHT22;13718;50.922;5.346;2023-03-30T08:48:45;14.70;99.90
25914;DHT22;13718;50.922;5.346;2023-03-30T08:53:40;14.40;99.90
25914;DHT22;13718;50.922;5.346;2023-03-30T09:01:22;14.40;99.90
25914;DHT22;13718;50.922;5.346;2023-03-30T09:06:43;14.60;99.90
25914;DHT22;13718;50.922;5.346;2023-03-30T09:09:10;14.70;99.90
25914;DHT22;13718;50.922;5.346;2023-03-30T09:11:37;14.70;99.90
25914;DHT22;13718;50.922;5.346;2023-03-30T09:14:03;14.70;99.90
25914;DHT22;13718;50.922;5.346;2023-03-30T09:18:56;14.90;99.90
25914;DHT22;13718;50.922;5.346;2023-03-30T09:21:24;15.00;99.90
25914;DHT22;13718;50.922;5.346;2023-03-30T09:23:51;15.10;99.90
25914;DHT22;13718;50.922;5.346;2023-03-30T09:26:20;15.00;99.90
25914;DHT22;13718;50.922;5.346;2023-03-30T09:29:09;15.10;99.90
25914;DHT22;13718;50.922;5.346;2023-03-30T09:34:37;15.30;99.90
25914;DHT22;13718;50.922;5.346;2023-03-30T09:37:10;15.20;99.90
25914;DHT22;13718;50.922;5.346;2023-03-30T09:39:36;15.20;99.90
25914;DHT22;13718;50.922;5.346;2023-03-30T09:44:45;15.30;99.90
25914;DHT22;13718;50.922;5.346;2023-03-30T09:49:40;15.80;99.90
25914;DHT22;13718;50.922;5.346;2023-03-30T09:52:06;15.70;99.90
25914;DHT22;13718;50.922;5.346;2023-03-30T09:54:36;15.80;99.90
25914;DHT22;13718;50.922;5.346;2023-03-30T09:57:02;16.00;99.90
25914;DHT22;13718;50.922;5.346;2023-03-30T09:59:29;16.30;99.90
25914;DHT22;13718;50.922;5.346;2023-03-30T10:02:08;16.50;99.90
25914;DHT22;13718;50.922;5.346;2023-03-30T10:04:43;16.70;99.90
25914;DHT22;13718;50.922;5.346;2023-03-30T10:07:22;17.10;99.90
25914;DHT22;13718;50.922;5.346;2023-03-30T10:09:47;17.20;99.90
25914;DHT22;13718;50.922;5.346;2023-03-30T10:12:13;17.20;99.90
25914;DHT22;13718;50.922;5.346;2023-03-30T10:14:39;17.30;99.90
25914;DHT22;13718;50.922;5.346;2023-03-30T10:17:04;17.60;99.90
25914;DHT22;13718;50.922;5.346;2023-03-30T10:19:32;17.80;99.90
25914;DHT22;13718;50.922;5.346;2023-03-30T10:21:58;17.90;99.90
25914;DHT22;13718;50.922;5.346;2023-03-30T10:24:27;18.20;99.90
25914;DHT22;13718;50.922;5.346;2023-03-30T10:26:58;18.40;99.90
25914;DHT22;13718;50.922;5.346;2023-03-30T10:29:27;18.60;99.90
25914;DHT22;13718;50.922;5.346;2023-03-30T10:31:56;18.60;99.90
25914;DHT22;13718;50.922;5.346;2023-03-30T10:34:28;18.30;99.90
25914;DHT22;13718;50.922;5.346;2023-03-30T10:36:56;18.20;99.90
25914;DHT22;13718;50.922;5.346;2023-03-30T10:39:22;18.10;99.90
25914;DHT22;13718;50.922;5.346;2023-03-30T10:41:49;18.00;99.90
25914;DHT22;13718;50.922;5.346;2023-03-30T10:44:22;17.90;99.90
25914;DHT22;13718;50.922;5.346;2023-03-30T10:46:49;18.00;99.90
25914;DHT22;13718;50.922;5.346;2023-03-30T10:49:24;18.00;99.90
25914;DHT22;13718;50.922;5.346;2023-03-30T10:57:17;18.40;99.90
25914;DHT22;13718;50.922;5.346;2023-03-30T11:04:57;17.80;99.90
25914;DHT22;13718;50.922;5.346;2023-03-30T11:09:52;16.40;99.90
25914;DHT22;13718;50.922;5.346;2023-03-30T11:12:18;16.00;99.90
25914;DHT22;13718;50.922;5.346;2023-03-30T11:15:02;15.40;99.90
25914;DHT22;13718;50.922;5.346;2023-03-30T11:19:55;14.10;99.90
25914;DHT22;13718;50.922;5.346;2023-03-30T11:24:56;13.80;99.90
25914;DHT22;13718;50.922;5.346;2023-03-30T11:29:52;13.70;99.90
25914;DHT22;13718;50.922;5.346;2023-03-30T11:35:09;13.40;99.90
25914;DHT22;13718;50.922;5.346;2023-03-30T11:37:41;13.30;99.90
25914;DHT22;13718;50.922;5.346;2023-03-30T11:42:38;13.50;99.90
25914;DHT22;13718;50.922;5.346;2023-03-30T11:45:11;13.60;99.90
25914;DHT22;13718;50.922;5.346;2023-03-30T11:47:54;13.80;99.90
25914;DHT22;13718;50.922;5.346;2023-03-30T11:50:27;14.00;99.90
25914;DHT22;13718;50.922;5.346;2023-03-30T11:53:08;14.00;99.90
25914;DHT22;13718;50.922;5.346;2023-03-30T12:05:44;14.60;99.90
25914;DHT22;13718;50.922;5.346;2023-03-30T12:10:58;15.10;99.90
25914;DHT22;13718;50.922;5.346;2023-03-30T12:13:25;15.30;99.90
25914;DHT22;13718;50.922;5.346;2023-03-30T12:21:04;16.00;99.90
25914;DHT22;13718;50.922;5.346;2023-03-30T12:26:17;15.70;99.90
25914;DHT22;13718;50.922;5.346;2023-03-30T12:28:50;15.60;99.90
25914;DHT22;13718;50.922;5.346;2023-03-30T12:31:46;15.50;99.90
25914;DHT22;13718;50.922;5.346;2023-03-30T12:34:08;15.40;99.90
25914;DHT22;13718;50.922;5.346;2023-03-30T12:39:03;15.20;99.90
25914;DHT22;13718;50.922;5.346;2023-03-30T12:41:42;15.20;99.90
25914;DHT22;13718;50.922;5.346;2023-03-30T12:49:10;15.40;99.90
25914;DHT22;13718;50.922;5.346;2023-03-30T12:51:44;15.50;99.90
25914;DHT22;13718;50.922;5.346;2023-03-30T12:57:06;16.00;99.90
25914;DHT22;13718;50.922;5.346;2023-03-30T13:02:23;16.20;99.90
25914;DHT22;13718;50.922;5.346;2023-03-30T13:04:50;16.40;99.90
25914;DHT22;13718;50.922;5.346;2023-03-30T13:07:23;16.60;99.90
25914;DHT22;13718;50.922;5.346;2023-03-30T13:09:58;16.60;99.90
25914;DHT22;13718;50.922;5.346;2023-03-30T13:12:29;16.60;99.90
25914;DHT22;13718;50.922;5.346;2023-03-30T13:14:56;16.60;99.90
25914;DHT22;13718;50.922;5.346;2023-03-30T13:17:22;16.70;99.90
25914;DHT22;13718;50.922;5.346;2023-03-30T13:20:03;16.80;99.90
25914;DHT22;13718;50.922;5.346;2023-03-30T13:22:35;16.90;99.90
25914;DHT22;13718;50.922;5.346;2023-03-30T13:25:35;17.00;99.90
25914;DHT22;13718;50.922;5.346;2023-03-30T13:27:55;16.90;99.90
25914;DHT22;13718;50.922;5.346;2023-03-30T13:30:23;17.10;99.90
25914;DHT22;13718;50.922;5.346;2023-03-30T13:32:52;17.30;99.90
25914;DHT22;13718;50.922;5.346;2023-03-30T13:40:41;18.10;99.90
25914;DHT22;13718;50.922;5.346;2023-03-30T13:50:58;18.00;99.90
25914;DHT22;13718;50.922;5.346;2023-03-30T13:53:25;18.10;99.90
25914;DHT22;13718;50.922;5.346;2023-03-30T13:55:53;18.30;99.90
25914;DHT22;13718;50.922;5.346;2023-03-30T13:58:20;18.50;99.90
25914;DHT22;13718;50.922;5.346;2023-03-30T14:00:59;18.50;99.90
25914;DHT22;13718;50.922;5.346;2023-03-30T14:03:30;18.60;99.90
25914;DHT22;13718;50.922;5.346;2023-03-30T14:06:05;19.00;99.90
25914;DHT22;13718;50.922;5.346;2023-03-30T14:08:33;19.10;99.90
25914;DHT22;13718;50.922;5.346;2023-03-30T14:11:00;19.20;99.90
25914;DHT22;13718;50.922;5.346;2023-03-30T14:13:26;19.20;99.90
25914;DHT22;13718;50.922;5.346;2023-03-30T14:15:53;19.40;99.90
25914;DHT22;13718;50.922;5.346;2023-03-30T14:18:20;19.50;99.90
25914;DHT22;13718;50.922;5.346;2023-03-30T14:20:50;19.50;99.90
25914;DHT22;13718;50.922;5.346;2023-03-30T14:23:30;19.50;99.90
25914;DHT22;13718;50.922;5.346;2023-03-30T14:25:57;19.50;99.90
25914;DHT22;13718;50.922;5.346;2023-03-30T14:28:25;19.50;99.90
25914;DHT22;13718;50.922;5.346;2023-03-30T14:30:57;19.60;99.90
25914;DHT22;13718;50.922;5.346;2023-03-30T14:33:24;19.70;99.90
25914;DHT22;13718;50.922;5.346;2023-03-30T14:35:51;19.70;99.90
25914;DHT22;13718;50.922;5.346;2023-03-30T14:38:21;19.50;99.90
25914;DHT22;13718;50.922;5.346;2023-03-30T14:40:48;19.40;99.90
25914;DHT22;13718;50.922;5.346;2023-03-30T14:43:21;19.10;99.90
25914;DHT22;13718;50.922;5.346;2023-03-30T14:45:49;19.00;99.90
25914;DHT22;13718;50.922;5.346;2023-03-30T14:48:18;19.00;99.90
25914;DHT22;13718;50.922;5.346;2023-03-30T14:50:45;19.10;99.90
25914;DHT22;13718;50.922;5.346;2023-03-30T14:53:10;19.20;99.90
25914;DHT22;13718;50.922;5.346;2023-03-30T14:55:36;19.10;99.90
25914;DHT22;13718;50.922;5.346;2023-03-30T14:58:02;19.00;99.90
25914;DHT22;13718;50.922;5.346;2023-03-30T15:00:28;18.70;99.90
25914;DHT22;13718;50.922;5.346;2023-03-30T15:02:56;18.50;99.90
25914;DHT22;13718;50.922;5.346;2023-03-30T15:05:23;18.20;99.90
25914;DHT22;13718;50.922;5.346;2023-03-30T15:07:49;18.20;99.90
25914;DHT22;13718;50.922;5.346;2023-03-30T15:10:22;18.10;99.90
25914;DHT22;13718;50.922;5.346;2023-03-30T15:12:48;18.00;99.90
25914;DHT22;13718;50.922;5.346;2023-03-30T15:15:15;18.20;99.90
25914;DHT22;13718;50.922;5.346;2023-03-30T15:17:43;18.10;99.90
25914;DHT22;13718;50.922;5.346;2023-03-30T15:20:09;18.00;99.90
25914;DHT22;13718;50.922;5.346;2023-03-30T15:22:36;17.90;99.90
25914;DHT22;13718;50.922;5.346;2023-03-30T15:25:13;17.70;99.90
25914;DHT22;13718;50.922;5.346;2023-03-30T15:27:41;17.70;99.90
25914;DHT22;13718;50.922;5.346;2023-03-30T15:30:18;17.90;99.90
25914;DHT22;13718;50.922;5.346;2023-03-30T15:32:45;17.80;99.90
25914;DHT22;13718;50.922;5.346;2023-03-30T15:37:36;17.70;99.90
25914;DHT22;13718;50.922;5.346;2023-03-30T15:40:03;17.80;99.90
25914;DHT22;13718;50.922;5.346;2023-03-30T15:42:47;17.80;99.90
25914;DHT22;13718;50.922;5.346;2023-03-30T15:45:14;18.10;99.90
25914;DHT22;13718;50.922;5.346;2023-03-30T15:47:39;18.10;99.90
25914;DHT22;13718;50.922;5.346;2023-03-30T15:50:09;18.10;99.90
25914;DHT22;13718;50.922;5.346;2023-03-30T15:52:36;18.10;99.90
25914;DHT22;13718;50.922;5.346;2023-03-30T15:55:16;18.00;99.90
25914;DHT22;13718;50.922;5.346;2023-03-30T15:57:43;18.20;99.90
25914;DHT22;13718;50.922;5.346;2023-03-30T16:00:29;18.30;99.90
25914;DHT22;13718;50.922;5.346;2023-03-30T16:02:58;18.20;99.90
25914;DHT22;13718;50.922;5.346;2023-03-30T16:05:25;18.10;99.90
25914;DHT22;13718;50.922;5.346;2023-03-30T16:07:51;18.10;99.90
25914;DHT22;13718;50.922;5.346;2023-03-30T16:10:18;18.10;99.90
25914;DHT22;13718;50.922;5.346;2023-03-30T16:12:49;17.80;99.90
25914;DHT22;13718;50.922;5.346;2023-03-30T16:15:16;17.80;99.90
25914;DHT22;13718;50.922;5.346;2023-03-30T16:17:42;17.70;99.90
25914;DHT22;13718;50.922;5.346;2023-03-30T16:20:18;17.70;99.90
25914;DHT22;13718;50.922;5.346;2023-03-30T16:22:44;17.80;99.90
25914;DHT22;13718;50.922;5.346;2023-03-30T16:25:15;18.00;99.90
25914;DHT22;13718;50.922;5.346;2023-03-30T16:27:41;17.70;99.90
25914;DHT22;13718;50.922;5.346;2023-03-30T16:30:15;17.80;99.90
25914;DHT22;13718;50.922;5.346;2023-03-30T16:32:41;17.60;99.90
25914;DHT22;13718;50.922;5.346;2023-03-30T16:35:07;17.70;99.90
25914;DHT22;13718;50.922;5.346;2023-03-30T16:37:32;17.70;99.90
25914;DHT22;13718;50.922;5.346;2023-03-30T16:39:58;17.70;99.90
25914;DHT22;13718;50.922;5.346;2023-03-30T16:42:23;17.70;99.90
25914;DHT22;13718;50.922;5.346;2023-03-30T16:44:51;17.50;99.90
25914;DHT22;13718;50.922;5.346;2023-03-30T16:47:16;17.30;99.90
25914;DHT22;13718;50.922;5.346;2023-03-30T16:49:44;17.10;99.90
25914;DHT22;13718;50.922;5.346;2023-03-30T16:52:10;17.10;99.90
25914;DHT22;13718;50.922;5.346;2023-03-30T16:54:35;17.10;99.90
25914;DHT22;13718;50.922;5.346;2023-03-30T16:57:01;17.20;99.90
25914;DHT22;13718;50.922;5.346;2023-03-30T16:59:27;17.30;99.90
25914;DHT22;13718;50.922;5.346;2023-03-30T17:01:55;17.50;99.90
25914;DHT22;13718;50.922;5.346;2023-03-30T17:04:21;17.40;99.90
25914;DHT22;13718;50.922;5.346;2023-03-30T17:06:47;17.20;99.90
25914;DHT22;13718;50.922;5.346;2023-03-30T17:09:14;17.10;99.90
25914;DHT22;13718;50.922;5.346;2023-03-30T17:11:41;17.00;99.90
25914;DHT22;13718;50.922;5.346;2023-03-30T17:14:07;16.90;99.90
25914;DHT22;13718;50.922;5.346;2023-03-30T17:16:32;16.70;99.90
25914;DHT22;13718;50.922;5.346;2023-03-30T17:18:59;16.70;99.90
25914;DHT22;13718;50.922;5.346;2023-03-30T17:21:25;16.90;99.90
25914;DHT22;13718;50.922;5.346;2023-03-30T17:23:50;16.80;99.90
25914;DHT22;13718;50.922;5.346;2023-03-30T17:26:16;16.40;99.90
25914;DHT22;13718;50.922;5.346;2023-03-30T17:28:42;16.10;99.90
25914;DHT22;13718;50.922;5.346;2023-03-30T17:31:15;15.80;99.90
25914;DHT22;13718;50.922;5.346;2023-03-30T17:33:40;15.90;99.90
25914;DHT22;13718;50.922;5.346;2023-03-30T17:36:10;15.80;99.90
25914;DHT22;13718;50.922;5.346;2023-03-30T17:38:36;15.70;99.90
25914;DHT22;13718;50.922;5.346;2023-03-30T17:41:02;15.70;99.90
25914;DHT22;13718;50.922;5.346;2023-03-30T17:43:27;15.50;99.90
25914;DHT22;13718;50.922;5.346;2023-03-30T17:45:53;15.40;99.90
25914;DHT22;13718;50.922;5.346;2023-03-30T17:48:19;15.20;99.90
25914;DHT22;13718;50.922;5.346;2023-03-30T17:50:45;15.30;99.90
25914;DHT22;13718;50.922;5.346;2023-03-30T17:53:12;15.10;99.90
25914;DHT22;13718;50.922;5.346;2023-03-30T17:55:42;15.00;99.90
25914;DHT22;13718;50.922;5.346;2023-03-30T17:58:31;15.10;99.90
25914;DHT22;13718;50.922;5.346;2023-03-30T18:00:56;15.10;99.90
25914;DHT22;13718;50.922;5.346;2023-03-30T18:03:22;15.20;99.90
25914;DHT22;13718;50.922;5.346;2023-03-30T18:05:50;15.30;99.90
25914;DHT22;13718;50.922;5.346;2023-03-30T18:08:16;15.50;99.90